sensor_id;sensor_type;location;lat;lon;timestamp;P1;durP1;ratioP1;P2;durP2;ratioP2
48765;SDS011;65794;51.836;5.002;2023-03-01T00:02:13;15.95;;;7.15;;
48765;SDS011;65794;51.836;5.002;2023-03-01T00:04:40;16.08;;;7.25;;
48765;SDS011;65794;51.836;5.002;2023-03-01T00:07:07;22.50;;;7.07;;
48765;SDS011;65794;51.836;5.002;2023-03-01T00:09:35;19.90;;;7.45;;
48765;SDS011;65794;51.836;5.002;2023-03-01T00:12:02;14.88;;;6.95;;
48765;SDS011;65794;51.836;5.002;2023-03-01T00:14:29;13.80;;;6.82;;
48765;SDS011;65794;51.836;5.002;2023-03-01T00:16:56;15.68;;;7.45;;
48765;SDS011;65794;51.836;5.002;2023-03-01T00:19:23;14.82;;;7.15;;
48765;SDS011;65794;51.836;5.002;2023-03-01T00:21:50;18.85;;;7.32;;
48765;SDS011;65794;51.836;5.002;2023-03-01T00:24:17;20.02;;;7.53;;
48765;SDS011;65794;51.836;5.002;2023-03-01T00:26:44;16.23;;;7.50;;
48765;SDS011;65794;51.836;5.002;2023-03-01T00:29:11;15.93;;;7.38;;
48765;SDS011;65794;51.836;5.002;2023-03-01T00:31:38;16.15;;;7.43;;
48765;SDS011;65794;51.836;5.002;2023-03-01T00:34:05;16.13;;;7.70;;
48765;SDS011;65794;51.836;5.002;2023-03-01T00:36:33;16.85;;;7.63;;
48765;SDS011;65794;51.836;5.002;2023-03-01T00:39:02;16.75;;;7.38;;
48765;SDS011;65794;51.836;5.002;2023-03-01T00:41:29;18.63;;;7.70;;
48765;SDS011;65794;51.836;5.002;2023-03-01T00:43:56;22.35;;;8.73;;
48765;SDS011;65794;51.836;5.002;2023-03-01T00:46:24;17.30;;;7.60;;
48765;SDS011;65794;51.836;5.002;2023-03-01T00:48:52;16.60;;;7.57;;
48765;SDS011;65794;51.836;5.002;2023-03-01T00:51:21;17.00;;;7.85;;
48765;SDS011;65794;51.836;5.002;2023-03-01T00:53:55;16.95;;;7.70;;
48765;SDS011;65794;51.836;5.002;2023-03-01T00:56:24;18.83;;;7.95;;
48765;SDS011;65794;51.836;5.002;2023-03-01T00:58:51;17.25;;;7.57;;
48765;SDS011;65794;51.836;5.002;2023-03-01T01:01:19;21.30;;;8.18;;
48765;SDS011;65794;51.836;5.002;2023-03-01T01:06:16;19.13;;;7.80;;
48765;SDS011;65794;51.836;5.002;2023-03-01T01:08:42;17.27;;;8.05;;
48765;SDS011;65794;51.836;5.002;2023-03-01T01:11:10;17.55;;;7.18;;
48765;SDS011;65794;51.836;5.002;2023-03-01T01:13:37;21.00;;;8.10;;
48765;SDS011;65794;51.836;5.002;2023-03-01T01:16:06;14.48;;;7.20;;
48765;SDS011;65794;51.836;5.002;2023-03-01T01:18:33;19.35;;;7.82;;
48765;SDS011;65794;51.836;5.002;2023-03-01T01:21:04;19.17;;;8.02;;
48765;SDS011;65794;51.836;5.002;2023-03-01T01:23:32;19.05;;;8.18;;
48765;SDS011;65794;51.836;5.002;2023-03-01T01:26:03;16.85;;;7.95;;
48765;SDS011;65794;51.836;5.002;2023-03-01T01:28:30;18.58;;;8.23;;
48765;SDS011;65794;51.836;5.002;2023-03-01T01:30:57;17.30;;;7.97;;
48765;SDS011;65794;51.836;5.002;2023-03-01T01:33:24;16.48;;;7.80;;
48765;SDS011;65794;51.836;5.002;2023-03-01T01:35:51;18.02;;;7.93;;
48765;SDS011;65794;51.836;5.002;2023-03-01T01:38:19;17.48;;;7.30;;
48765;SDS011;65794;51.836;5.002;2023-03-01T01:40:46;18.48;;;8.27;;
48765;SDS011;65794;51.836;5.002;2023-03-01T01:43:21;18.35;;;8.23;;
48765;SDS011;65794;51.836;5.002;2023-03-01T01:45:49;17.15;;;7.88;;
48765;SDS011;65794;51.836;5.002;2023-03-01T01:48:18;16.02;;;7.93;;
48765;SDS011;65794;51.836;5.002;2023-03-01T01:50:46;21.17;;;8.55;;
48765;SDS011;65794;51.836;5.002;2023-03-01T01:53:16;19.50;;;8.50;;
48765;SDS011;65794;51.836;5.002;2023-03-01T01:55:45;17.40;;;7.90;;
48765;SDS011;65794;51.836;5.002;2023-03-01T01:58:15;18.38;;;8.02;;
48765;SDS011;65794;51.836;5.002;2023-03-01T02:00:45;26.60;;;8.88;;
48765;SDS011;65794;51.836;5.002;2023-03-01T02:03:14;18.17;;;7.93;;
48765;SDS011;65794;51.836;5.002;2023-03-01T02:08:13;16.58;;;7.55;;
48765;SDS011;65794;51.836;5.002;2023-03-01T02:10:40;31.25;;;8.63;;
48765;SDS011;65794;51.836;5.002;2023-03-01T02:13:08;20.83;;;8.77;;
48765;SDS011;65794;51.836;5.002;2023-03-01T02:15:37;18.90;;;8.55;;
48765;SDS011;65794;51.836;5.002;2023-03-01T02:18:05;17.02;;;7.75;;
48765;SDS011;65794;51.836;5.002;2023-03-01T02:23:09;18.88;;;7.82;;
48765;SDS011;65794;51.836;5.002;2023-03-01T02:28:26;18.42;;;7.65;;
48765;SDS011;65794;51.836;5.002;2023-03-01T02:30:53;16.10;;;7.07;;
48765;SDS011;65794;51.836;5.002;2023-03-01T02:33:39;18.03;;;7.73;;
48765;SDS011;65794;51.836;5.002;2023-03-01T02:36:08;18.20;;;7.82;;
48765;SDS011;65794;51.836;5.002;2023-03-01T02:38:36;18.70;;;7.65;;
48765;SDS011;65794;51.836;5.002;2023-03-01T02:41:03;16.27;;;7.40;;
48765;SDS011;65794;51.836;5.002;2023-03-01T02:43:31;16.48;;;7.35;;
48765;SDS011;65794;51.836;5.002;2023-03-01T02:46:04;17.00;;;7.75;;
48765;SDS011;65794;51.836;5.002;2023-03-01T02:51:45;19.38;;;8.20;;
48765;SDS011;65794;51.836;5.002;2023-03-01T02:56:47;19.83;;;8.23;;
48765;SDS011;65794;51.836;5.002;2023-03-01T02:59:18;18.70;;;7.38;;
48765;SDS011;65794;51.836;5.002;2023-03-01T03:01:46;18.90;;;7.53;;
48765;SDS011;65794;51.836;5.002;2023-03-01T03:04:15;22.98;;;7.72;;
48765;SDS011;65794;51.836;5.002;2023-03-01T03:06:48;20.33;;;8.52;;
48765;SDS011;65794;51.836;5.002;2023-03-01T03:09:16;23.23;;;8.15;;
48765;SDS011;65794;51.836;5.002;2023-03-01T03:11:43;22.63;;;9.00;;
48765;SDS011;65794;51.836;5.002;2023-03-01T03:14:11;21.98;;;8.38;;
48765;SDS011;65794;51.836;5.002;2023-03-01T03:16:45;21.13;;;8.63;;
48765;SDS011;65794;51.836;5.002;2023-03-01T03:19:12;17.15;;;8.32;;
48765;SDS011;65794;51.836;5.002;2023-03-01T03:21:39;16.40;;;7.30;;
48765;SDS011;65794;51.836;5.002;2023-03-01T03:24:06;20.05;;;8.95;;
48765;SDS011;65794;51.836;5.002;2023-03-01T03:26:33;18.52;;;8.13;;
48765;SDS011;65794;51.836;5.002;2023-03-01T03:29:00;23.60;;;9.13;;
48765;SDS011;65794;51.836;5.002;2023-03-01T03:31:27;20.75;;;9.50;;
48765;SDS011;65794;51.836;5.002;2023-03-01T03:33:54;24.85;;;8.88;;
48765;SDS011;65794;51.836;5.002;2023-03-01T03:36:22;19.98;;;9.55;;
48765;SDS011;65794;51.836;5.002;2023-03-01T03:38:49;22.58;;;9.02;;
48765;SDS011;65794;51.836;5.002;2023-03-01T03:41:16;22.27;;;10.18;;
48765;SDS011;65794;51.836;5.002;2023-03-01T03:43:43;21.95;;;10.15;;
48765;SDS011;65794;51.836;5.002;2023-03-01T03:46:10;25.13;;;9.60;;
48765;SDS011;65794;51.836;5.002;2023-03-01T03:48:38;20.60;;;8.95;;
48765;SDS011;65794;51.836;5.002;2023-03-01T03:51:07;21.92;;;9.60;;
48765;SDS011;65794;51.836;5.002;2023-03-01T03:53:36;21.98;;;9.98;;
48765;SDS011;65794;51.836;5.002;2023-03-01T03:56:03;22.40;;;9.95;;
48765;SDS011;65794;51.836;5.002;2023-03-01T03:58:32;20.80;;;8.75;;
48765;SDS011;65794;51.836;5.002;2023-03-01T04:00:59;20.23;;;9.10;;
48765;SDS011;65794;51.836;5.002;2023-03-01T04:03:27;24.33;;;9.68;;
48765;SDS011;65794;51.836;5.002;2023-03-01T04:05:56;26.50;;;10.43;;
48765;SDS011;65794;51.836;5.002;2023-03-01T04:08:23;22.60;;;10.27;;
48765;SDS011;65794;51.836;5.002;2023-03-01T04:10:52;23.73;;;9.55;;
48765;SDS011;65794;51.836;5.002;2023-03-01T04:13:20;26.63;;;10.55;;
48765;SDS011;65794;51.836;5.002;2023-03-01T04:15:48;26.83;;;10.55;;
48765;SDS011;65794;51.836;5.002;2023-03-01T04:18:16;24.83;;;10.57;;
48765;SDS011;65794;51.836;5.002;2023-03-01T04:20:43;18.75;;;9.15;;
48765;SDS011;65794;51.836;5.002;2023-03-01T04:23:15;23.65;;;10.02;;
48765;SDS011;65794;51.836;5.002;2023-03-01T04:28:12;25.45;;;11.10;;
48765;SDS011;65794;51.836;5.002;2023-03-01T04:30:39;27.48;;;10.30;;
48765;SDS011;65794;51.836;5.002;2023-03-01T04:33:06;25.38;;;10.73;;
48765;SDS011;65794;51.836;5.002;2023-03-01T04:35:33;25.92;;;10.60;;
48765;SDS011;65794;51.836;5.002;2023-03-01T04:38:01;22.73;;;10.52;;
48765;SDS011;65794;51.836;5.002;2023-03-01T04:40:28;24.75;;;10.60;;
48765;SDS011;65794;51.836;5.002;2023-03-01T04:42:55;28.27;;;11.80;;
48765;SDS011;65794;51.836;5.002;2023-03-01T04:45:22;23.10;;;10.48;;
48765;SDS011;65794;51.836;5.002;2023-03-01T04:47:49;23.83;;;9.80;;
48765;SDS011;65794;51.836;5.002;2023-03-01T04:50:19;26.63;;;11.07;;
48765;SDS011;65794;51.836;5.002;2023-03-01T04:52:50;24.83;;;11.32;;
48765;SDS011;65794;51.836;5.002;2023-03-01T04:55:17;22.67;;;10.68;;
48765;SDS011;65794;51.836;5.002;2023-03-01T04:57:43;25.23;;;10.90;;
48765;SDS011;65794;51.836;5.002;2023-03-01T05:00:11;25.50;;;10.13;;
48765;SDS011;65794;51.836;5.002;2023-03-01T05:05:15;25.63;;;10.60;;
48765;SDS011;65794;51.836;5.002;2023-03-01T05:07:42;27.60;;;11.52;;
48765;SDS011;65794;51.836;5.002;2023-03-01T05:10:09;24.05;;;10.80;;
48765;SDS011;65794;51.836;5.002;2023-03-01T05:12:37;22.02;;;10.57;;
48765;SDS011;65794;51.836;5.002;2023-03-01T05:15:06;23.08;;;9.70;;
48765;SDS011;65794;51.836;5.002;2023-03-01T05:17:34;24.73;;;11.05;;
48765;SDS011;65794;51.836;5.002;2023-03-01T05:20:01;23.15;;;11.07;;
48765;SDS011;65794;51.836;5.002;2023-03-01T05:22:28;26.45;;;10.70;;
48765;SDS011;65794;51.836;5.002;2023-03-01T05:24:55;25.52;;;11.18;;
48765;SDS011;65794;51.836;5.002;2023-03-01T05:27:22;31.80;;;11.18;;
48765;SDS011;65794;51.836;5.002;2023-03-01T05:29:49;32.33;;;11.82;;
48765;SDS011;65794;51.836;5.002;2023-03-01T05:32:16;25.75;;;11.80;;
48765;SDS011;65794;51.836;5.002;2023-03-01T05:34:43;22.67;;;10.80;;
48765;SDS011;65794;51.836;5.002;2023-03-01T05:37:10;26.50;;;9.98;;
48765;SDS011;65794;51.836;5.002;2023-03-01T05:39:37;25.15;;;10.77;;
48765;SDS011;65794;51.836;5.002;2023-03-01T05:42:05;25.00;;;11.32;;
48765;SDS011;65794;51.836;5.002;2023-03-01T05:44:31;26.73;;;11.43;;
48765;SDS011;65794;51.836;5.002;2023-03-01T05:46:58;19.20;;;9.25;;
48765;SDS011;65794;51.836;5.002;2023-03-01T05:49:25;29.48;;;11.35;;
48765;SDS011;65794;51.836;5.002;2023-03-01T05:51:52;26.15;;;11.68;;
48765;SDS011;65794;51.836;5.002;2023-03-01T05:54:20;36.80;;;11.10;;
48765;SDS011;65794;51.836;5.002;2023-03-01T05:56:47;26.95;;;11.13;;
48765;SDS011;65794;51.836;5.002;2023-03-01T05:59:14;23.38;;;10.52;;
48765;SDS011;65794;51.836;5.002;2023-03-01T06:01:42;24.67;;;10.93;;
48765;SDS011;65794;51.836;5.002;2023-03-01T06:04:10;28.13;;;10.63;;
48765;SDS011;65794;51.836;5.002;2023-03-01T06:06:37;26.27;;;10.95;;
48765;SDS011;65794;51.836;5.002;2023-03-01T06:09:05;29.13;;;11.05;;
48765;SDS011;65794;51.836;5.002;2023-03-01T06:11:34;27.30;;;11.45;;
48765;SDS011;65794;51.836;5.002;2023-03-01T06:14:01;20.98;;;10.30;;
48765;SDS011;65794;51.836;5.002;2023-03-01T06:16:28;25.73;;;11.02;;
48765;SDS011;65794;51.836;5.002;2023-03-01T06:18:55;25.15;;;10.25;;
48765;SDS011;65794;51.836;5.002;2023-03-01T06:21:22;27.27;;;10.57;;
48765;SDS011;65794;51.836;5.002;2023-03-01T06:23:49;29.63;;;11.23;;
48765;SDS011;65794;51.836;5.002;2023-03-01T06:26:16;23.08;;;10.05;;
48765;SDS011;65794;51.836;5.002;2023-03-01T06:28:44;24.35;;;10.15;;
48765;SDS011;65794;51.836;5.002;2023-03-01T06:31:12;25.83;;;10.30;;
48765;SDS011;65794;51.836;5.002;2023-03-01T06:33:39;26.08;;;10.45;;
48765;SDS011;65794;51.836;5.002;2023-03-01T06:36:07;23.75;;;10.35;;
48765;SDS011;65794;51.836;5.002;2023-03-01T06:38:34;24.02;;;10.43;;
48765;SDS011;65794;51.836;5.002;2023-03-01T06:41:02;32.70;;;12.10;;
48765;SDS011;65794;51.836;5.002;2023-03-01T06:43:28;24.98;;;10.65;;
48765;SDS011;65794;51.836;5.002;2023-03-01T06:45:55;32.05;;;10.52;;
48765;SDS011;65794;51.836;5.002;2023-03-01T06:48:22;23.42;;;10.48;;
48765;SDS011;65794;51.836;5.002;2023-03-01T06:50:49;27.95;;;11.00;;
48765;SDS011;65794;51.836;5.002;2023-03-01T06:53:16;23.17;;;9.50;;
48765;SDS011;65794;51.836;5.002;2023-03-01T06:55:43;29.90;;;10.30;;
48765;SDS011;65794;51.836;5.002;2023-03-01T06:58:09;24.98;;;10.02;;
48765;SDS011;65794;51.836;5.002;2023-03-01T07:00:37;33.22;;;11.35;;
48765;SDS011;65794;51.836;5.002;2023-03-01T07:03:07;25.38;;;10.63;;
48765;SDS011;65794;51.836;5.002;2023-03-01T07:05:35;23.88;;;10.93;;
48765;SDS011;65794;51.836;5.002;2023-03-01T07:08:02;20.92;;;9.65;;
48765;SDS011;65794;51.836;5.002;2023-03-01T07:10:29;25.10;;;9.80;;
48765;SDS011;65794;51.836;5.002;2023-03-01T07:12:56;24.30;;;10.27;;
48765;SDS011;65794;51.836;5.002;2023-03-01T07:15:23;22.52;;;10.15;;
48765;SDS011;65794;51.836;5.002;2023-03-01T07:17:50;22.83;;;10.07;;
48765;SDS011;65794;51.836;5.002;2023-03-01T07:20:18;25.98;;;10.60;;
48765;SDS011;65794;51.836;5.002;2023-03-01T07:22:45;27.13;;;10.43;;
48765;SDS011;65794;51.836;5.002;2023-03-01T07:25:12;25.90;;;10.75;;
48765;SDS011;65794;51.836;5.002;2023-03-01T07:27:39;23.60;;;9.68;;
48765;SDS011;65794;51.836;5.002;2023-03-01T07:30:08;20.98;;;9.25;;
48765;SDS011;65794;51.836;5.002;2023-03-01T07:32:36;25.60;;;9.60;;
48765;SDS011;65794;51.836;5.002;2023-03-01T07:35:03;25.25;;;10.48;;
48765;SDS011;65794;51.836;5.002;2023-03-01T07:37:30;21.60;;;9.18;;
48765;SDS011;65794;51.836;5.002;2023-03-01T07:39:57;24.45;;;8.88;;
48765;SDS011;65794;51.836;5.002;2023-03-01T07:42:24;22.52;;;8.90;;
48765;SDS011;65794;51.836;5.002;2023-03-01T07:44:50;24.10;;;8.68;;
48765;SDS011;65794;51.836;5.002;2023-03-01T07:47:17;20.90;;;8.65;;
48765;SDS011;65794;51.836;5.002;2023-03-01T07:49:44;22.90;;;9.05;;
48765;SDS011;65794;51.836;5.002;2023-03-01T07:52:11;20.00;;;8.80;;
48765;SDS011;65794;51.836;5.002;2023-03-01T07:54:38;19.33;;;8.40;;
48765;SDS011;65794;51.836;5.002;2023-03-01T07:57:05;15.93;;;7.40;;
48765;SDS011;65794;51.836;5.002;2023-03-01T07:59:32;20.70;;;8.10;;
48765;SDS011;65794;51.836;5.002;2023-03-01T08:02:00;17.50;;;8.13;;
48765;SDS011;65794;51.836;5.002;2023-03-01T08:04:27;22.30;;;9.15;;
48765;SDS011;65794;51.836;5.002;2023-03-01T08:06:54;22.77;;;8.02;;
48765;SDS011;65794;51.836;5.002;2023-03-01T08:09:21;29.60;;;8.73;;
48765;SDS011;65794;51.836;5.002;2023-03-01T08:11:48;19.60;;;8.10;;
48765;SDS011;65794;51.836;5.002;2023-03-01T08:14:15;20.27;;;7.72;;
48765;SDS011;65794;51.836;5.002;2023-03-01T08:16:42;16.85;;;7.75;;
48765;SDS011;65794;51.836;5.002;2023-03-01T08:19:10;21.70;;;7.72;;
48765;SDS011;65794;51.836;5.002;2023-03-01T08:21:37;19.48;;;7.93;;
48765;SDS011;65794;51.836;5.002;2023-03-01T08:24:05;22.42;;;7.65;;
48765;SDS011;65794;51.836;5.002;2023-03-01T08:26:32;17.33;;;7.32;;
48765;SDS011;65794;51.836;5.002;2023-03-01T08:29:00;17.58;;;7.38;;
48765;SDS011;65794;51.836;5.002;2023-03-01T08:31:29;15.13;;;7.10;;
48765;SDS011;65794;51.836;5.002;2023-03-01T08:33:57;19.27;;;8.10;;
48765;SDS011;65794;51.836;5.002;2023-03-01T08:36:32;22.65;;;7.38;;
48765;SDS011;65794;51.836;5.002;2023-03-01T08:38:59;16.17;;;6.55;;
48765;SDS011;65794;51.836;5.002;2023-03-01T08:41:26;17.83;;;6.97;;
48765;SDS011;65794;51.836;5.002;2023-03-01T08:43:54;15.02;;;6.10;;
48765;SDS011;65794;51.836;5.002;2023-03-01T08:46:26;18.40;;;6.50;;
48765;SDS011;65794;51.836;5.002;2023-03-01T08:48:53;17.58;;;5.88;;
48765;SDS011;65794;51.836;5.002;2023-03-01T08:51:20;12.05;;;5.18;;
48765;SDS011;65794;51.836;5.002;2023-03-01T08:53:48;13.88;;;5.57;;
48765;SDS011;65794;51.836;5.002;2023-03-01T08:56:15;8.88;;;4.78;;
48765;SDS011;65794;51.836;5.002;2023-03-01T08:58:46;13.70;;;5.30;;
48765;SDS011;65794;51.836;5.002;2023-03-01T09:01:17;12.43;;;5.43;;
48765;SDS011;65794;51.836;5.002;2023-03-01T09:03:45;11.85;;;5.15;;
48765;SDS011;65794;51.836;5.002;2023-03-01T09:06:12;11.80;;;5.50;;
48765;SDS011;65794;51.836;5.002;2023-03-01T09:08:40;15.18;;;6.32;;
48765;SDS011;65794;51.836;5.002;2023-03-01T09:11:08;10.30;;;5.72;;
48765;SDS011;65794;51.836;5.002;2023-03-01T09:13:37;14.05;;;5.78;;
48765;SDS011;65794;51.836;5.002;2023-03-01T09:16:04;12.35;;;6.25;;
48765;SDS011;65794;51.836;5.002;2023-03-01T09:18:31;10.40;;;6.13;;
48765;SDS011;65794;51.836;5.002;2023-03-01T09:21:08;12.20;;;6.78;;
48765;SDS011;65794;51.836;5.002;2023-03-01T09:23:36;11.23;;;5.75;;
48765;SDS011;65794;51.836;5.002;2023-03-01T09:26:06;11.02;;;5.88;;
48765;SDS011;65794;51.836;5.002;2023-03-01T09:28:33;10.95;;;6.03;;
48765;SDS011;65794;51.836;5.002;2023-03-01T09:31:00;10.63;;;5.57;;
48765;SDS011;65794;51.836;5.002;2023-03-01T09:33:27;10.23;;;5.97;;
48765;SDS011;65794;51.836;5.002;2023-03-01T09:36:02;9.85;;;5.50;;
48765;SDS011;65794;51.836;5.002;2023-03-01T09:38:29;10.13;;;6.13;;
48765;SDS011;65794;51.836;5.002;2023-03-01T09:40:56;9.95;;;5.53;;
48765;SDS011;65794;51.836;5.002;2023-03-01T09:45:50;11.23;;;6.15;;
48765;SDS011;65794;51.836;5.002;2023-03-01T09:48:21;11.73;;;5.28;;
48765;SDS011;65794;51.836;5.002;2023-03-01T09:50:50;9.70;;;5.00;;
48765;SDS011;65794;51.836;5.002;2023-03-01T09:53:19;11.93;;;5.28;;
48765;SDS011;65794;51.836;5.002;2023-03-01T10:00:43;12.30;;;6.40;;
48765;SDS011;65794;51.836;5.002;2023-03-01T10:03:13;8.70;;;5.50;;
48765;SDS011;65794;51.836;5.002;2023-03-01T10:10:37;9.93;;;5.75;;
48765;SDS011;65794;51.836;5.002;2023-03-01T10:13:27;9.10;;;5.13;;
48765;SDS011;65794;51.836;5.002;2023-03-01T10:16:04;9.95;;;5.32;;
48765;SDS011;65794;51.836;5.002;2023-03-01T10:18:32;10.60;;;5.32;;
48765;SDS011;65794;51.836;5.002;2023-03-01T10:21:01;11.65;;;5.60;;
48765;SDS011;65794;51.836;5.002;2023-03-01T10:23:30;9.50;;;5.47;;
48765;SDS011;65794;51.836;5.002;2023-03-01T10:26:10;8.13;;;4.85;;
48765;SDS011;65794;51.836;5.002;2023-03-01T10:28:54;8.00;;;4.45;;
48765;SDS011;65794;51.836;5.002;2023-03-01T10:31:25;9.73;;;4.30;;
48765;SDS011;65794;51.836;5.002;2023-03-01T10:33:55;8.20;;;3.90;;
48765;SDS011;65794;51.836;5.002;2023-03-01T10:36:23;10.15;;;4.25;;
48765;SDS011;65794;51.836;5.002;2023-03-01T10:38:51;12.18;;;4.35;;
48765;SDS011;65794;51.836;5.002;2023-03-01T10:41:21;9.25;;;4.20;;
48765;SDS011;65794;51.836;5.002;2023-03-01T10:43:54;7.05;;;3.38;;
48765;SDS011;65794;51.836;5.002;2023-03-01T10:46:25;6.80;;;3.35;;
48765;SDS011;65794;51.836;5.002;2023-03-01T10:49:06;8.02;;;4.55;;
48765;SDS011;65794;51.836;5.002;2023-03-01T10:51:33;5.97;;;3.60;;
48765;SDS011;65794;51.836;5.002;2023-03-01T10:54:00;8.13;;;4.03;;
48765;SDS011;65794;51.836;5.002;2023-03-01T10:56:27;5.82;;;3.55;;
48765;SDS011;65794;51.836;5.002;2023-03-01T10:58:59;7.82;;;3.60;;
48765;SDS011;65794;51.836;5.002;2023-03-01T11:01:27;8.50;;;3.20;;
48765;SDS011;65794;51.836;5.002;2023-03-01T11:04:03;7.93;;;3.63;;
48765;SDS011;65794;51.836;5.002;2023-03-01T11:06:30;8.40;;;4.28;;
48765;SDS011;65794;51.836;5.002;2023-03-01T11:08:57;8.35;;;3.97;;
48765;SDS011;65794;51.836;5.002;2023-03-01T11:11:40;7.13;;;4.28;;
48765;SDS011;65794;51.836;5.002;2023-03-01T11:14:12;8.98;;;4.28;;
48765;SDS011;65794;51.836;5.002;2023-03-01T11:17:02;8.82;;;4.07;;
48765;SDS011;65794;51.836;5.002;2023-03-01T11:19:29;8.18;;;3.70;;
48765;SDS011;65794;51.836;5.002;2023-03-01T11:24:29;8.65;;;4.00;;
48765;SDS011;65794;51.836;5.002;2023-03-01T11:26:56;7.38;;;4.13;;
48765;SDS011;65794;51.836;5.002;2023-03-01T11:29:30;6.38;;;3.88;;
48765;SDS011;65794;51.836;5.002;2023-03-01T11:32:13;8.02;;;4.25;;
48765;SDS011;65794;51.836;5.002;2023-03-01T11:42:28;8.05;;;4.13;;
48765;SDS011;65794;51.836;5.002;2023-03-01T11:44:58;8.30;;;4.05;;
48765;SDS011;65794;51.836;5.002;2023-03-01T11:47:49;7.00;;;3.92;;
48765;SDS011;65794;51.836;5.002;2023-03-01T11:53:13;9.57;;;4.47;;
48765;SDS011;65794;51.836;5.002;2023-03-01T11:55:57;8.45;;;4.55;;
48765;SDS011;65794;51.836;5.002;2023-03-01T12:06:26;7.97;;;4.25;;
48765;SDS011;65794;51.836;5.002;2023-03-01T12:09:01;8.63;;;4.53;;
48765;SDS011;65794;51.836;5.002;2023-03-01T12:11:41;7.75;;;4.88;;
48765;SDS011;65794;51.836;5.002;2023-03-01T12:19:23;8.20;;;4.80;;
48765;SDS011;65794;51.836;5.002;2023-03-01T12:27:23;8.90;;;4.72;;
48765;SDS011;65794;51.836;5.002;2023-03-01T12:50:48;6.97;;;3.80;;
48765;SDS011;65794;51.836;5.002;2023-03-01T12:53:22;6.85;;;3.80;;
48765;SDS011;65794;51.836;5.002;2023-03-01T12:55:51;7.05;;;4.00;;
48765;SDS011;65794;51.836;5.002;2023-03-01T13:00:55;8.13;;;4.40;;
48765;SDS011;65794;51.836;5.002;2023-03-01T13:03:35;7.28;;;4.25;;
48765;SDS011;65794;51.836;5.002;2023-03-01T13:06:11;7.13;;;4.30;;
48765;SDS011;65794;51.836;5.002;2023-03-01T13:08:48;8.98;;;4.53;;
48765;SDS011;65794;51.836;5.002;2023-03-01T13:11:20;8.93;;;4.63;;
48765;SDS011;65794;51.836;5.002;2023-03-01T13:13:48;8.10;;;4.80;;
48765;SDS011;65794;51.836;5.002;2023-03-01T13:16:38;8.07;;;4.45;;
48765;SDS011;65794;51.836;5.002;2023-03-01T13:19:06;9.25;;;4.60;;
48765;SDS011;65794;51.836;5.002;2023-03-01T13:21:34;7.50;;;4.03;;
48765;SDS011;65794;51.836;5.002;2023-03-01T13:24:00;8.57;;;5.10;;
48765;SDS011;65794;51.836;5.002;2023-03-01T13:26:28;7.70;;;4.68;;
48765;SDS011;65794;51.836;5.002;2023-03-01T13:28:56;8.13;;;4.75;;
48765;SDS011;65794;51.836;5.002;2023-03-01T13:31:55;8.13;;;4.63;;
48765;SDS011;65794;51.836;5.002;2023-03-01T13:34:56;8.25;;;5.10;;
48765;SDS011;65794;51.836;5.002;2023-03-01T13:37:09;7.50;;;4.60;;
48765;SDS011;65794;51.836;5.002;2023-03-01T13:39:39;8.18;;;4.30;;
48765;SDS011;65794;51.836;5.002;2023-03-01T13:45:36;10.70;;;5.00;;
48765;SDS011;65794;51.836;5.002;2023-03-01T13:48:09;10.27;;;4.75;;
48765;SDS011;65794;51.836;5.002;2023-03-01T13:50:38;9.15;;;4.82;;
48765;SDS011;65794;51.836;5.002;2023-03-01T13:53:09;9.35;;;5.07;;
48765;SDS011;65794;51.836;5.002;2023-03-01T14:01:02;7.72;;;4.55;;
48765;SDS011;65794;51.836;5.002;2023-03-01T14:03:31;8.32;;;4.03;;
48765;SDS011;65794;51.836;5.002;2023-03-01T14:06:09;7.43;;;4.32;;
48765;SDS011;65794;51.836;5.002;2023-03-01T14:08:43;8.50;;;4.05;;
48765;SDS011;65794;51.836;5.002;2023-03-01T14:11:20;9.15;;;4.18;;
48765;SDS011;65794;51.836;5.002;2023-03-01T14:13:58;7.35;;;4.70;;
48765;SDS011;65794;51.836;5.002;2023-03-01T14:16:40;9.27;;;5.28;;
48765;SDS011;65794;51.836;5.002;2023-03-01T14:21:39;6.90;;;4.47;;
48765;SDS011;65794;51.836;5.002;2023-03-01T14:24:13;7.15;;;4.18;;
48765;SDS011;65794;51.836;5.002;2023-03-01T14:26:41;8.25;;;4.53;;
48765;SDS011;65794;51.836;5.002;2023-03-01T14:29:23;9.30;;;4.85;;
48765;SDS011;65794;51.836;5.002;2023-03-01T14:31:49;7.22;;;4.28;;
48765;SDS011;65794;51.836;5.002;2023-03-01T14:34:23;8.48;;;4.88;;
48765;SDS011;65794;51.836;5.002;2023-03-01T14:36:50;11.00;;;5.05;;
48765;SDS011;65794;51.836;5.002;2023-03-01T14:39:23;12.32;;;4.80;;
48765;SDS011;65794;51.836;5.002;2023-03-01T14:41:50;8.60;;;4.43;;
48765;SDS011;65794;51.836;5.002;2023-03-01T14:44:23;11.95;;;4.78;;
48765;SDS011;65794;51.836;5.002;2023-03-01T14:46:52;10.70;;;4.70;;
48765;SDS011;65794;51.836;5.002;2023-03-01T14:49:21;11.90;;;4.20;;
48765;SDS011;65794;51.836;5.002;2023-03-01T14:51:53;7.18;;;4.10;;
48765;SDS011;65794;51.836;5.002;2023-03-01T14:54:28;14.48;;;4.38;;
48765;SDS011;65794;51.836;5.002;2023-03-01T14:57:00;11.07;;;4.70;;
48765;SDS011;65794;51.836;5.002;2023-03-01T14:59:27;8.45;;;4.57;;
48765;SDS011;65794;51.836;5.002;2023-03-01T15:01:55;8.27;;;4.35;;
48765;SDS011;65794;51.836;5.002;2023-03-01T15:04:23;9.73;;;4.63;;
48765;SDS011;65794;51.836;5.002;2023-03-01T15:06:51;9.48;;;4.93;;
48765;SDS011;65794;51.836;5.002;2023-03-01T15:09:18;9.68;;;4.50;;
48765;SDS011;65794;51.836;5.002;2023-03-01T15:11:45;10.85;;;4.47;;
48765;SDS011;65794;51.836;5.002;2023-03-01T15:14:25;8.18;;;4.53;;
48765;SDS011;65794;51.836;5.002;2023-03-01T15:16:52;9.75;;;4.72;;
48765;SDS011;65794;51.836;5.002;2023-03-01T15:19:19;14.65;;;4.88;;
48765;SDS011;65794;51.836;5.002;2023-03-01T15:21:48;12.35;;;5.32;;
48765;SDS011;65794;51.836;5.002;2023-03-01T15:24:23;13.25;;;4.55;;
48765;SDS011;65794;51.836;5.002;2023-03-01T15:29:23;12.32;;;4.78;;
48765;SDS011;65794;51.836;5.002;2023-03-01T15:36:51;9.60;;;4.15;;
48765;SDS011;65794;51.836;5.002;2023-03-01T15:41:51;8.70;;;4.07;;
48765;SDS011;65794;51.836;5.002;2023-03-01T15:44:25;9.13;;;4.40;;
48765;SDS011;65794;51.836;5.002;2023-03-01T15:47:00;9.45;;;4.13;;
48765;SDS011;65794;51.836;5.002;2023-03-01T15:49:41;7.47;;;4.10;;
48765;SDS011;65794;51.836;5.002;2023-03-01T15:52:28;12.52;;;3.85;;
48765;SDS011;65794;51.836;5.002;2023-03-01T15:54:59;11.23;;;4.57;;
48765;SDS011;65794;51.836;5.002;2023-03-01T15:57:27;7.93;;;4.10;;
48765;SDS011;65794;51.836;5.002;2023-03-01T15:59:54;9.85;;;4.18;;
48765;SDS011;65794;51.836;5.002;2023-03-01T16:02:21;12.63;;;4.00;;
48765;SDS011;65794;51.836;5.002;2023-03-01T16:04:49;9.95;;;4.18;;
48765;SDS011;65794;51.836;5.002;2023-03-01T16:07:16;9.63;;;4.05;;
48765;SDS011;65794;51.836;5.002;2023-03-01T16:09:43;9.27;;;4.15;;
48765;SDS011;65794;51.836;5.002;2023-03-01T16:12:12;10.77;;;4.70;;
48765;SDS011;65794;51.836;5.002;2023-03-01T16:14:40;15.85;;;4.28;;
48765;SDS011;65794;51.836;5.002;2023-03-01T16:17:06;9.70;;;4.70;;
48765;SDS011;65794;51.836;5.002;2023-03-01T16:19:37;8.50;;;4.10;;
48765;SDS011;65794;51.836;5.002;2023-03-01T16:22:04;8.98;;;4.40;;
48765;SDS011;65794;51.836;5.002;2023-03-01T16:24:31;8.57;;;3.80;;
48765;SDS011;65794;51.836;5.002;2023-03-01T16:26:58;7.60;;;3.88;;
48765;SDS011;65794;51.836;5.002;2023-03-01T16:29:25;11.23;;;4.20;;
48765;SDS011;65794;51.836;5.002;2023-03-01T16:31:52;8.90;;;3.72;;
48765;SDS011;65794;51.836;5.002;2023-03-01T16:34:20;9.70;;;4.28;;
48765;SDS011;65794;51.836;5.002;2023-03-01T16:36:48;9.15;;;4.18;;
48765;SDS011;65794;51.836;5.002;2023-03-01T16:39:15;11.68;;;4.85;;